sensor_id;sensor_type;location;lat;lon;timestamp;P1;durP1;ratioP1;P2;durP2;ratioP2
4290;SDS011;2159;50.906;7.152;2023-11-18T00:01:24;35.87;;;14.47;;
4290;SDS011;2159;50.906;7.152;2023-11-18T00:03:52;31.17;;;13.67;;
4290;SDS011;2159;50.906;7.152;2023-11-18T00:06:20;33.23;;;15.17;;
4290;SDS011;2159;50.906;7.152;2023-11-18T00:08:47;33.53;;;14.03;;
4290;SDS011;2159;50.906;7.152;2023-11-18T00:11:14;33.00;;;14.50;;
4290;SDS011;2159;50.906;7.152;2023-11-18T00:13:43;31.90;;;14.73;;
4290;SDS011;2159;50.906;7.152;2023-11-18T00:16:11;29.90;;;14.60;;
4290;SDS011;2159;50.906;7.152;2023-11-18T00:18:39;32.07;;;14.43;;
4290;SDS011;2159;50.906;7.152;2023-11-18T00:21:06;31.50;;;14.83;;
4290;SDS011;2159;50.906;7.152;2023-11-18T00:23:34;27.50;;;14.03;;
4290;SDS011;2159;50.906;7.152;2023-11-18T00:26:01;37.47;;;15.00;;
4290;SDS011;2159;50.906;7.152;2023-11-18T00:28:29;33.23;;;15.43;;
4290;SDS011;2159;50.906;7.152;2023-11-18T00:30:58;33.53;;;14.63;;
4290;SDS011;2159;50.906;7.152;2023-11-18T00:33:26;30.37;;;14.70;;
4290;SDS011;2159;50.906;7.152;2023-11-18T00:35:53;31.97;;;13.87;;
4290;SDS011;2159;50.906;7.152;2023-11-18T00:38:21;30.50;;;14.37;;
4290;SDS011;2159;50.906;7.152;2023-11-18T00:40:48;28.17;;;13.40;;
4290;SDS011;2159;50.906;7.152;2023-11-18T00:43:16;28.07;;;13.40;;
4290;SDS011;2159;50.906;7.152;2023-11-18T00:45:43;30.23;;;13.23;;
4290;SDS011;2159;50.906;7.152;2023-11-18T00:48:12;26.30;;;12.70;;
4290;SDS011;2159;50.906;7.152;2023-11-18T00:50:41;28.80;;;12.50;;
4290;SDS011;2159;50.906;7.152;2023-11-18T00:53:08;28.07;;;13.10;;
4290;SDS011;2159;50.906;7.152;2023-11-18T00:55:36;33.30;;;12.90;;
4290;SDS011;2159;50.906;7.152;2023-11-18T00:58:03;27.07;;;13.70;;
4290;SDS011;2159;50.906;7.152;2023-11-18T01:00:32;30.23;;;13.33;;
4290;SDS011;2159;50.906;7.152;2023-11-18T01:03:00;27.93;;;12.40;;
4290;SDS011;2159;50.906;7.152;2023-11-18T01:05:30;26.47;;;12.47;;
4290;SDS011;2159;50.906;7.152;2023-11-18T01:07:58;29.43;;;13.33;;
4290;SDS011;2159;50.906;7.152;2023-11-18T01:10:25;26.80;;;12.40;;
4290;SDS011;2159;50.906;7.152;2023-11-18T01:12:53;26.43;;;12.47;;
4290;SDS011;2159;50.906;7.152;2023-11-18T01:15:22;25.67;;;12.90;;
4290;SDS011;2159;50.906;7.152;2023-11-18T01:17:50;27.27;;;12.03;;
4290;SDS011;2159;50.906;7.152;2023-11-18T01:20:17;28.10;;;12.83;;
4290;SDS011;2159;50.906;7.152;2023-11-18T01:22:49;28.60;;;13.70;;
4290;SDS011;2159;50.906;7.152;2023-11-18T01:25:17;27.83;;;12.83;;
4290;SDS011;2159;50.906;7.152;2023-11-18T01:27:45;28.07;;;13.03;;
4290;SDS011;2159;50.906;7.152;2023-11-18T01:30:14;23.97;;;12.80;;
4290;SDS011;2159;50.906;7.152;2023-11-18T01:32:41;27.77;;;13.63;;
4290;SDS011;2159;50.906;7.152;2023-11-18T01:35:09;29.03;;;14.50;;
4290;SDS011;2159;50.906;7.152;2023-11-18T01:37:38;27.27;;;13.20;;
4290;SDS011;2159;50.906;7.152;2023-11-18T01:40:08;27.13;;;13.20;;
4290;SDS011;2159;50.906;7.152;2023-11-18T01:42:38;27.33;;;13.30;;
4290;SDS011;2159;50.906;7.152;2023-11-18T01:45:06;27.03;;;12.70;;
4290;SDS011;2159;50.906;7.152;2023-11-18T01:47:38;26.60;;;12.87;;
4290;SDS011;2159;50.906;7.152;2023-11-18T01:50:06;24.23;;;11.60;;
4290;SDS011;2159;50.906;7.152;2023-11-18T01:52:35;26.77;;;12.27;;
4290;SDS011;2159;50.906;7.152;2023-11-18T01:55:03;26.13;;;12.87;;
4290;SDS011;2159;50.906;7.152;2023-11-18T01:57:34;28.20;;;12.83;;
4290;SDS011;2159;50.906;7.152;2023-11-18T02:00:03;26.07;;;12.47;;
4290;SDS011;2159;50.906;7.152;2023-11-18T02:02:32;27.80;;;13.20;;
4290;SDS011;2159;50.906;7.152;2023-11-18T02:05:02;25.07;;;12.10;;
4290;SDS011;2159;50.906;7.152;2023-11-18T02:07:32;28.83;;;12.70;;
4290;SDS011;2159;50.906;7.152;2023-11-18T02:10:02;25.80;;;12.90;;
4290;SDS011;2159;50.906;7.152;2023-11-18T02:12:31;26.70;;;12.43;;
4290;SDS011;2159;50.906;7.152;2023-11-18T02:15:02;28.97;;;12.20;;
4290;SDS011;2159;50.906;7.152;2023-11-18T02:17:35;26.27;;;12.10;;
4290;SDS011;2159;50.906;7.152;2023-11-18T02:20:05;26.27;;;12.20;;
4290;SDS011;2159;50.906;7.152;2023-11-18T02:22:40;26.33;;;12.23;;
4290;SDS011;2159;50.906;7.152;2023-11-18T02:25:08;28.30;;;12.37;;
4290;SDS011;2159;50.906;7.152;2023-11-18T02:27:38;27.83;;;12.70;;
4290;SDS011;2159;50.906;7.152;2023-11-18T02:30:06;24.80;;;12.50;;
4290;SDS011;2159;50.906;7.152;2023-11-18T02:32:39;29.27;;;13.47;;
4290;SDS011;2159;50.906;7.152;2023-11-18T02:35:13;24.73;;;11.70;;
4290;SDS011;2159;50.906;7.152;2023-11-18T02:37:42;25.77;;;12.60;;
4290;SDS011;2159;50.906;7.152;2023-11-18T02:40:12;26.90;;;13.03;;
4290;SDS011;2159;50.906;7.152;2023-11-18T02:42:43;27.53;;;12.50;;
4290;SDS011;2159;50.906;7.152;2023-11-18T02:45:12;24.93;;;12.87;;
4290;SDS011;2159;50.906;7.152;2023-11-18T02:47:43;27.07;;;12.77;;
4290;SDS011;2159;50.906;7.152;2023-11-18T02:50:11;30.90;;;13.47;;
4290;SDS011;2159;50.906;7.152;2023-11-18T02:52:40;27.33;;;13.07;;
4290;SDS011;2159;50.906;7.152;2023-11-18T02:55:08;28.57;;;12.87;;
4290;SDS011;2159;50.906;7.152;2023-11-18T02:57:35;26.80;;;12.83;;
4290;SDS011;2159;50.906;7.152;2023-11-18T03:00:05;29.03;;;12.60;;
4290;SDS011;2159;50.906;7.152;2023-11-18T03:02:37;26.53;;;12.13;;
4290;SDS011;2159;50.906;7.152;2023-11-18T03:05:06;31.23;;;13.90;;
4290;SDS011;2159;50.906;7.152;2023-11-18T03:07:33;26.63;;;13.23;;
4290;SDS011;2159;50.906;7.152;2023-11-18T03:10:01;23.43;;;12.07;;
4290;SDS011;2159;50.906;7.152;2023-11-18T03:12:29;24.80;;;12.23;;
4290;SDS011;2159;50.906;7.152;2023-11-18T03:14:57;23.60;;;12.70;;
4290;SDS011;2159;50.906;7.152;2023-11-18T03:17:26;24.90;;;12.70;;
4290;SDS011;2159;50.906;7.152;2023-11-18T03:19:54;24.60;;;12.20;;
4290;SDS011;2159;50.906;7.152;2023-11-18T03:22:22;23.27;;;12.23;;
4290;SDS011;2159;50.906;7.152;2023-11-18T03:24:50;27.57;;;12.33;;
4290;SDS011;2159;50.906;7.152;2023-11-18T03:27:17;26.00;;;12.13;;
4290;SDS011;2159;50.906;7.152;2023-11-18T03:29:45;23.27;;;12.73;;
4290;SDS011;2159;50.906;7.152;2023-11-18T03:32:14;24.07;;;12.00;;
4290;SDS011;2159;50.906;7.152;2023-11-18T03:34:43;25.20;;;12.70;;
4290;SDS011;2159;50.906;7.152;2023-11-18T03:37:11;23.00;;;12.10;;
4290;SDS011;2159;50.906;7.152;2023-11-18T03:39:38;27.50;;;12.80;;
4290;SDS011;2159;50.906;7.152;2023-11-18T03:42:06;24.73;;;12.47;;
4290;SDS011;2159;50.906;7.152;2023-11-18T03:44:34;23.57;;;12.00;;
4290;SDS011;2159;50.906;7.152;2023-11-18T03:47:02;24.87;;;12.53;;
4290;SDS011;2159;50.906;7.152;2023-11-18T03:49:29;27.33;;;12.10;;
4290;SDS011;2159;50.906;7.152;2023-11-18T03:51:59;22.03;;;11.93;;
4290;SDS011;2159;50.906;7.152;2023-11-18T03:54:26;22.60;;;11.70;;
4290;SDS011;2159;50.906;7.152;2023-11-18T03:56:54;24.60;;;12.30;;
4290;SDS011;2159;50.906;7.152;2023-11-18T03:59:22;23.30;;;11.90;;
4290;SDS011;2159;50.906;7.152;2023-11-18T04:01:49;23.30;;;12.50;;
4290;SDS011;2159;50.906;7.152;2023-11-18T04:04:17;23.97;;;12.33;;
4290;SDS011;2159;50.906;7.152;2023-11-18T04:06:45;24.13;;;12.83;;
4290;SDS011;2159;50.906;7.152;2023-11-18T04:09:14;21.90;;;11.67;;
4290;SDS011;2159;50.906;7.152;2023-11-18T04:11:42;25.13;;;12.87;;
4290;SDS011;2159;50.906;7.152;2023-11-18T04:14:11;26.87;;;13.37;;
4290;SDS011;2159;50.906;7.152;2023-11-18T04:16:39;26.10;;;13.50;;
4290;SDS011;2159;50.906;7.152;2023-11-18T04:19:06;24.40;;;12.60;;
4290;SDS011;2159;50.906;7.152;2023-11-18T04:21:34;23.13;;;12.33;;
4290;SDS011;2159;50.906;7.152;2023-11-18T04:24:01;22.20;;;12.33;;
4290;SDS011;2159;50.906;7.152;2023-11-18T04:26:30;24.57;;;13.03;;
4290;SDS011;2159;50.906;7.152;2023-11-18T04:28:58;26.43;;;13.43;;
4290;SDS011;2159;50.906;7.152;2023-11-18T04:31:25;24.27;;;12.83;;
4290;SDS011;2159;50.906;7.152;2023-11-18T04:33:53;24.50;;;12.67;;
4290;SDS011;2159;50.906;7.152;2023-11-18T04:36:22;23.70;;;12.47;;
4290;SDS011;2159;50.906;7.152;2023-11-18T04:38:49;24.80;;;12.00;;
4290;SDS011;2159;50.906;7.152;2023-11-18T04:41:17;21.30;;;11.30;;
4290;SDS011;2159;50.906;7.152;2023-11-18T04:43:45;25.30;;;11.60;;
4290;SDS011;2159;50.906;7.152;2023-11-18T04:46:13;23.27;;;11.73;;
4290;SDS011;2159;50.906;7.152;2023-11-18T04:48:41;21.77;;;11.70;;
4290;SDS011;2159;50.906;7.152;2023-11-18T04:51:09;20.63;;;11.50;;
4290;SDS011;2159;50.906;7.152;2023-11-18T04:53:37;20.37;;;11.07;;
4290;SDS011;2159;50.906;7.152;2023-11-18T04:56:06;19.27;;;10.97;;
4290;SDS011;2159;50.906;7.152;2023-11-18T04:58:37;19.20;;;10.80;;
4290;SDS011;2159;50.906;7.152;2023-11-18T05:01:06;22.83;;;11.50;;
4290;SDS011;2159;50.906;7.152;2023-11-18T05:03:35;22.10;;;11.07;;
4290;SDS011;2159;50.906;7.152;2023-11-18T05:06:03;21.03;;;10.93;;
4290;SDS011;2159;50.906;7.152;2023-11-18T05:08:31;20.50;;;11.13;;
4290;SDS011;2159;50.906;7.152;2023-11-18T05:11:00;27.83;;;12.10;;
4290;SDS011;2159;50.906;7.152;2023-11-18T05:13:27;20.90;;;11.17;;
4290;SDS011;2159;50.906;7.152;2023-11-18T05:15:56;21.50;;;11.07;;
4290;SDS011;2159;50.906;7.152;2023-11-18T05:18:24;23.80;;;11.30;;
4290;SDS011;2159;50.906;7.152;2023-11-18T05:20:56;22.67;;;11.07;;
4290;SDS011;2159;50.906;7.152;2023-11-18T05:23:24;20.37;;;10.90;;
4290;SDS011;2159;50.906;7.152;2023-11-18T05:25:52;20.30;;;11.60;;
4290;SDS011;2159;50.906;7.152;2023-11-18T05:28:19;24.07;;;11.87;;
4290;SDS011;2159;50.906;7.152;2023-11-18T05:30:48;21.00;;;11.33;;
4290;SDS011;2159;50.906;7.152;2023-11-18T05:33:16;21.37;;;11.20;;
4290;SDS011;2159;50.906;7.152;2023-11-18T05:35:45;20.90;;;11.40;;
4290;SDS011;2159;50.906;7.152;2023-11-18T05:38:15;21.40;;;11.63;;
4290;SDS011;2159;50.906;7.152;2023-11-18T05:40:45;20.90;;;11.20;;
4290;SDS011;2159;50.906;7.152;2023-11-18T05:43:22;22.40;;;11.70;;
4290;SDS011;2159;50.906;7.152;2023-11-18T05:45:50;17.73;;;10.70;;
4290;SDS011;2159;50.906;7.152;2023-11-18T05:48:37;22.53;;;11.70;;
4290;SDS011;2159;50.906;7.152;2023-11-18T05:51:11;20.93;;;11.53;;
4290;SDS011;2159;50.906;7.152;2023-11-18T05:53:39;21.73;;;11.83;;
4290;SDS011;2159;50.906;7.152;2023-11-18T05:56:07;21.90;;;12.00;;
4290;SDS011;2159;50.906;7.152;2023-11-18T05:58:34;20.30;;;10.90;;
4290;SDS011;2159;50.906;7.152;2023-11-18T06:01:02;20.27;;;11.07;;
4290;SDS011;2159;50.906;7.152;2023-11-18T06:03:29;21.83;;;12.00;;
4290;SDS011;2159;50.906;7.152;2023-11-18T06:05:57;22.53;;;11.27;;
4290;SDS011;2159;50.906;7.152;2023-11-18T06:08:26;19.77;;;10.80;;
4290;SDS011;2159;50.906;7.152;2023-11-18T06:10:53;19.57;;;11.20;;
4290;SDS011;2159;50.906;7.152;2023-11-18T06:13:23;19.73;;;10.97;;
4290;SDS011;2159;50.906;7.152;2023-11-18T06:15:50;20.50;;;11.40;;
4290;SDS011;2159;50.906;7.152;2023-11-18T06:18:19;20.00;;;11.10;;
4290;SDS011;2159;50.906;7.152;2023-11-18T06:20:46;22.33;;;11.53;;
4290;SDS011;2159;50.906;7.152;2023-11-18T06:23:14;20.63;;;11.33;;
4290;SDS011;2159;50.906;7.152;2023-11-18T06:25:46;17.73;;;9.90;;
4290;SDS011;2159;50.906;7.152;2023-11-18T06:28:14;19.50;;;10.50;;
4290;SDS011;2159;50.906;7.152;2023-11-18T06:30:42;21.47;;;11.20;;
4290;SDS011;2159;50.906;7.152;2023-11-18T06:33:10;17.93;;;9.77;;
4290;SDS011;2159;50.906;7.152;2023-11-18T06:35:38;17.27;;;9.50;;
4290;SDS011;2159;50.906;7.152;2023-11-18T06:38:06;19.80;;;10.97;;
4290;SDS011;2159;50.906;7.152;2023-11-18T06:40:34;19.17;;;9.77;;
4290;SDS011;2159;50.906;7.152;2023-11-18T06:43:02;18.30;;;10.17;;
4290;SDS011;2159;50.906;7.152;2023-11-18T06:45:37;19.00;;;10.70;;
4290;SDS011;2159;50.906;7.152;2023-11-18T06:48:04;18.97;;;10.60;;
4290;SDS011;2159;50.906;7.152;2023-11-18T06:50:32;19.40;;;10.30;;
4290;SDS011;2159;50.906;7.152;2023-11-18T06:53:01;17.30;;;9.83;;
4290;SDS011;2159;50.906;7.152;2023-11-18T06:55:28;19.60;;;10.60;;
4290;SDS011;2159;50.906;7.152;2023-11-18T06:57:56;17.80;;;9.83;;
4290;SDS011;2159;50.906;7.152;2023-11-18T07:00:25;17.57;;;10.77;;
4290;SDS011;2159;50.906;7.152;2023-11-18T07:02:54;18.87;;;10.00;;
4290;SDS011;2159;50.906;7.152;2023-11-18T07:05:21;18.20;;;10.37;;
4290;SDS011;2159;50.906;7.152;2023-11-18T07:07:50;18.83;;;9.73;;
4290;SDS011;2159;50.906;7.152;2023-11-18T07:10:18;17.60;;;9.87;;
4290;SDS011;2159;50.906;7.152;2023-11-18T07:12:47;18.87;;;10.83;;
4290;SDS011;2159;50.906;7.152;2023-11-18T07:15:15;17.70;;;10.70;;
4290;SDS011;2159;50.906;7.152;2023-11-18T07:17:43;17.40;;;10.57;;
4290;SDS011;2159;50.906;7.152;2023-11-18T07:20:12;18.63;;;9.77;;
4290;SDS011;2159;50.906;7.152;2023-11-18T07:22:40;17.17;;;10.00;;
4290;SDS011;2159;50.906;7.152;2023-11-18T07:25:08;18.50;;;10.00;;
4290;SDS011;2159;50.906;7.152;2023-11-18T07:27:35;18.97;;;10.20;;
4290;SDS011;2159;50.906;7.152;2023-11-18T07:30:03;17.10;;;9.60;;
4290;SDS011;2159;50.906;7.152;2023-11-18T07:32:37;16.70;;;10.00;;
4290;SDS011;2159;50.906;7.152;2023-11-18T07:35:07;16.50;;;9.43;;
4290;SDS011;2159;50.906;7.152;2023-11-18T07:37:36;15.60;;;8.93;;
4290;SDS011;2159;50.906;7.152;2023-11-18T07:40:04;17.93;;;9.20;;
4290;SDS011;2159;50.906;7.152;2023-11-18T07:42:31;18.90;;;9.47;;
4290;SDS011;2159;50.906;7.152;2023-11-18T07:45:00;16.57;;;8.73;;
4290;SDS011;2159;50.906;7.152;2023-11-18T07:47:30;16.67;;;9.67;;
4290;SDS011;2159;50.906;7.152;2023-11-18T07:49:58;16.50;;;9.40;;
4290;SDS011;2159;50.906;7.152;2023-11-18T07:52:28;16.00;;;9.20;;
4290;SDS011;2159;50.906;7.152;2023-11-18T07:54:56;16.40;;;9.03;;
4290;SDS011;2159;50.906;7.152;2023-11-18T07:57:23;14.60;;;9.40;;
4290;SDS011;2159;50.906;7.152;2023-11-18T07:59:53;15.17;;;9.37;;
4290;SDS011;2159;50.906;7.152;2023-11-18T08:02:20;16.17;;;9.10;;
4290;SDS011;2159;50.906;7.152;2023-11-18T08:04:48;15.33;;;9.20;;
4290;SDS011;2159;50.906;7.152;2023-11-18T08:07:16;15.47;;;9.30;;
4290;SDS011;2159;50.906;7.152;2023-11-18T08:09:44;16.47;;;10.00;;
4290;SDS011;2159;50.906;7.152;2023-11-18T08:12:12;18.23;;;8.63;;
4290;SDS011;2159;50.906;7.152;2023-11-18T08:14:39;16.33;;;9.40;;
4290;SDS011;2159;50.906;7.152;2023-11-18T08:17:07;14.67;;;8.67;;
4290;SDS011;2159;50.906;7.152;2023-11-18T08:19:36;16.63;;;9.50;;
4290;SDS011;2159;50.906;7.152;2023-11-18T08:22:04;14.07;;;8.40;;
4290;SDS011;2159;50.906;7.152;2023-11-18T08:24:32;15.03;;;8.90;;
4290;SDS011;2159;50.906;7.152;2023-11-18T08:27:01;15.00;;;8.77;;
4290;SDS011;2159;50.906;7.152;2023-11-18T08:29:29;14.37;;;8.47;;
4290;SDS011;2159;50.906;7.152;2023-11-18T08:31:58;15.70;;;9.00;;
4290;SDS011;2159;50.906;7.152;2023-11-18T08:34:26;16.50;;;8.90;;
4290;SDS011;2159;50.906;7.152;2023-11-18T08:36:53;15.27;;;8.70;;
4290;SDS011;2159;50.906;7.152;2023-11-18T08:39:21;14.70;;;9.60;;
4290;SDS011;2159;50.906;7.152;2023-11-18T08:41:51;20.90;;;10.83;;
4290;SDS011;2159;50.906;7.152;2023-11-18T08:44:20;16.63;;;9.10;;
4290;SDS011;2159;50.906;7.152;2023-11-18T08:46:50;13.60;;;8.80;;
4290;SDS011;2159;50.906;7.152;2023-11-18T08:49:18;16.73;;;9.07;;
4290;SDS011;2159;50.906;7.152;2023-11-18T08:51:47;13.57;;;8.30;;
4290;SDS011;2159;50.906;7.152;2023-11-18T08:54:16;16.63;;;8.87;;
4290;SDS011;2159;50.906;7.152;2023-11-18T08:56:51;16.00;;;8.80;;
4290;SDS011;2159;50.906;7.152;2023-11-18T08:59:19;16.30;;;8.87;;
4290;SDS011;2159;50.906;7.152;2023-11-18T09:01:52;13.83;;;8.60;;
4290;SDS011;2159;50.906;7.152;2023-11-18T09:04:22;12.97;;;8.53;;
4290;SDS011;2159;50.906;7.152;2023-11-18T09:06:50;13.90;;;8.53;;
4290;SDS011;2159;50.906;7.152;2023-11-18T09:09:20;14.50;;;8.57;;
4290;SDS011;2159;50.906;7.152;2023-11-18T09:11:53;13.80;;;8.20;;
4290;SDS011;2159;50.906;7.152;2023-11-18T09:14:20;13.53;;;8.90;;
4290;SDS011;2159;50.906;7.152;2023-11-18T09:16:48;13.00;;;8.33;;
4290;SDS011;2159;50.906;7.152;2023-11-18T09:19:17;14.07;;;8.47;;
4290;SDS011;2159;50.906;7.152;2023-11-18T09:21:47;10.80;;;7.73;;
4290;SDS011;2159;50.906;7.152;2023-11-18T09:24:14;16.77;;;9.93;;
4290;SDS011;2159;50.906;7.152;2023-11-18T09:26:46;20.40;;;12.00;;
4290;SDS011;2159;50.906;7.152;2023-11-18T09:29:16;16.23;;;10.27;;
4290;SDS011;2159;50.906;7.152;2023-11-18T09:31:45;14.80;;;9.10;;
4290;SDS011;2159;50.906;7.152;2023-11-18T09:34:14;14.37;;;9.20;;
4290;SDS011;2159;50.906;7.152;2023-11-18T09:36:44;13.53;;;8.33;;
4290;SDS011;2159;50.906;7.152;2023-11-18T09:39:14;14.23;;;8.30;;
4290;SDS011;2159;50.906;7.152;2023-11-18T09:41:55;12.80;;;8.43;;
4290;SDS011;2159;50.906;7.152;2023-11-18T09:44:23;13.63;;;8.30;;
4290;SDS011;2159;50.906;7.152;2023-11-18T09:46:53;13.37;;;7.30;;
4290;SDS011;2159;50.906;7.152;2023-11-18T09:49:31;13.53;;;8.20;;
4290;SDS011;2159;50.906;7.152;2023-11-18T09:52:06;11.73;;;7.40;;
4290;SDS011;2159;50.906;7.152;2023-11-18T09:54:36;15.53;;;7.50;;
4290;SDS011;2159;50.906;7.152;2023-11-18T09:57:08;13.60;;;8.13;;
4290;SDS011;2159;50.906;7.152;2023-11-18T09:59:42;12.87;;;7.87;;
4290;SDS011;2159;50.906;7.152;2023-11-18T10:02:13;12.70;;;7.23;;
4290;SDS011;2159;50.906;7.152;2023-11-18T10:04:41;14.13;;;7.60;;
4290;SDS011;2159;50.906;7.152;2023-11-18T10:07:10;14.73;;;7.20;;
4290;SDS011;2159;50.906;7.152;2023-11-18T10:09:38;14.80;;;8.13;;
4290;SDS011;2159;50.906;7.152;2023-11-18T10:12:06;10.87;;;6.40;;
4290;SDS011;2159;50.906;7.152;2023-11-18T10:14:34;15.43;;;7.43;;
4290;SDS011;2159;50.906;7.152;2023-11-18T10:17:05;11.00;;;7.03;;
4290;SDS011;2159;50.906;7.152;2023-11-18T10:19:49;11.10;;;7.20;;
4290;SDS011;2159;50.906;7.152;2023-11-18T10:22:22;11.00;;;6.50;;
4290;SDS011;2159;50.906;7.152;2023-11-18T10:24:50;12.53;;;6.87;;
4290;SDS011;2159;50.906;7.152;2023-11-18T10:27:21;11.63;;;6.80;;
4290;SDS011;2159;50.906;7.152;2023-11-18T10:29:54;12.70;;;7.07;;
4290;SDS011;2159;50.906;7.152;2023-11-18T10:32:22;12.90;;;6.73;;
4290;SDS011;2159;50.906;7.152;2023-11-18T10:34:54;12.73;;;6.77;;
4290;SDS011;2159;50.906;7.152;2023-11-18T10:37:24;7.03;;;5.73;;
4290;SDS011;2159;50.906;7.152;2023-11-18T10:39:52;8.33;;;5.60;;
4290;SDS011;2159;50.906;7.152;2023-11-18T10:42:20;8.10;;;5.90;;
4290;SDS011;2159;50.906;7.152;2023-11-18T10:44:54;8.20;;;6.07;;
4290;SDS011;2159;50.906;7.152;2023-11-18T10:47:22;8.30;;;5.30;;
4290;SDS011;2159;50.906;7.152;2023-11-18T10:49:50;7.77;;;5.70;;
4290;SDS011;2159;50.906;7.152;2023-11-18T10:52:18;8.10;;;5.60;;
4290;SDS011;2159;50.906;7.152;2023-11-18T10:54:53;7.60;;;5.50;;
4290;SDS011;2159;50.906;7.152;2023-11-18T10:57:22;7.73;;;5.40;;
4290;SDS011;2159;50.906;7.152;2023-11-18T10:59:59;8.60;;;5.50;;
4290;SDS011;2159;50.906;7.152;2023-11-18T11:02:29;7.00;;;5.53;;
4290;SDS011;2159;50.906;7.152;2023-11-18T11:05:01;7.00;;;5.23;;
4290;SDS011;2159;50.906;7.152;2023-11-18T11:07:29;6.57;;;5.20;;
4290;SDS011;2159;50.906;7.152;2023-11-18T11:10:00;6.67;;;5.13;;
4290;SDS011;2159;50.906;7.152;2023-11-18T11:12:32;8.10;;;5.20;;
4290;SDS011;2159;50.906;7.152;2023-11-18T11:15:01;6.67;;;5.20;;
4290;SDS011;2159;50.906;7.152;2023-11-18T11:17:33;7.60;;;5.20;;
4290;SDS011;2159;50.906;7.152;2023-11-18T11:20:06;5.60;;;5.00;;
4290;SDS011;2159;50.906;7.152;2023-11-18T11:22:46;5.63;;;4.63;;
4290;SDS011;2159;50.906;7.152;2023-11-18T11:25:22;7.03;;;4.80;;
4290;SDS011;2159;50.906;7.152;2023-11-18T11:27:54;10.00;;;5.53;;
4290;SDS011;2159;50.906;7.152;2023-11-18T11:30:28;6.03;;;5.03;;
4290;SDS011;2159;50.906;7.152;2023-11-18T11:33:00;9.73;;;5.30;;
4290;SDS011;2159;50.906;7.152;2023-11-18T11:35:33;10.17;;;5.73;;
4290;SDS011;2159;50.906;7.152;2023-11-18T11:38:02;11.53;;;5.17;;
4290;SDS011;2159;50.906;7.152;2023-11-18T11:40:38;8.47;;;4.80;;
4290;SDS011;2159;50.906;7.152;2023-11-18T11:43:07;12.57;;;5.40;;
4290;SDS011;2159;50.906;7.152;2023-11-18T11:45:37;10.43;;;5.03;;
4290;SDS011;2159;50.906;7.152;2023-11-18T11:48:06;7.53;;;5.40;;
4290;SDS011;2159;50.906;7.152;2023-11-18T11:53:42;6.70;;;5.20;;
4290;SDS011;2159;50.906;7.152;2023-11-18T11:56:13;7.63;;;5.50;;
4290;SDS011;2159;50.906;7.152;2023-11-18T11:58:47;7.43;;;5.37;;
4290;SDS011;2159;50.906;7.152;2023-11-18T12:01:23;14.10;;;5.17;;
4290;SDS011;2159;50.906;7.152;2023-11-18T12:03:56;11.47;;;5.43;;
4290;SDS011;2159;50.906;7.152;2023-11-18T12:06:26;7.77;;;5.63;;
4290;SDS011;2159;50.906;7.152;2023-11-18T12:08:54;8.50;;;6.13;;
4290;SDS011;2159;50.906;7.152;2023-11-18T12:11:23;9.67;;;5.77;;
4290;SDS011;2159;50.906;7.152;2023-11-18T12:14:00;8.80;;;5.90;;
4290;SDS011;2159;50.906;7.152;2023-11-18T12:19:33;10.17;;;5.90;;
4290;SDS011;2159;50.906;7.152;2023-11-18T12:22:11;11.87;;;6.50;;
4290;SDS011;2159;50.906;7.152;2023-11-18T12:24:45;8.50;;;6.13;;
4290;SDS011;2159;50.906;7.152;2023-11-18T12:30:23;10.40;;;5.97;;
4290;SDS011;2159;50.906;7.152;2023-11-18T12:33:07;10.10;;;5.93;;
4290;SDS011;2159;50.906;7.152;2023-11-18T12:35:39;11.73;;;6.50;;
4290;SDS011;2159;50.906;7.152;2023-11-18T12:41:06;8.37;;;5.80;;
4290;SDS011;2159;50.906;7.152;2023-11-18T12:43:42;8.77;;;5.87;;
4290;SDS011;2159;50.906;7.152;2023-11-18T12:49:04;10.60;;;5.60;;
4290;SDS011;2159;50.906;7.152;2023-11-18T12:51:32;8.80;;;5.53;;
4290;SDS011;2159;50.906;7.152;2023-11-18T12:54:03;8.83;;;6.10;;
4290;SDS011;2159;50.906;7.152;2023-11-18T12:56:33;8.77;;;5.40;;
4290;SDS011;2159;50.906;7.152;2023-11-18T12:59:00;9.20;;;5.70;;
4290;SDS011;2159;50.906;7.152;2023-11-18T13:01:32;8.47;;;5.63;;
4290;SDS011;2159;50.906;7.152;2023-11-18T13:04:02;12.40;;;6.17;;
4290;SDS011;2159;50.906;7.152;2023-11-18T13:06:31;10.30;;;5.93;;
4290;SDS011;2159;50.906;7.152;2023-11-18T13:08:59;9.60;;;5.90;;
4290;SDS011;2159;50.906;7.152;2023-11-18T13:11:31;12.77;;;6.03;;
4290;SDS011;2159;50.906;7.152;2023-11-18T13:14:00;7.67;;;5.63;;
4290;SDS011;2159;50.906;7.152;2023-11-18T13:16:28;11.53;;;5.37;;
4290;SDS011;2159;50.906;7.152;2023-11-18T13:18:55;8.90;;;5.70;;
4290;SDS011;2159;50.906;7.152;2023-11-18T13:21:23;10.00;;;5.40;;
4290;SDS011;2159;50.906;7.152;2023-11-18T13:23:53;8.07;;;5.10;;
4290;SDS011;2159;50.906;7.152;2023-11-18T13:26:21;10.23;;;5.57;;
4290;SDS011;2159;50.906;7.152;2023-11-18T13:28:48;6.47;;;4.93;;
4290;SDS011;2159;50.906;7.152;2023-11-18T13:31:16;7.47;;;5.07;;
4290;SDS011;2159;50.906;7.152;2023-11-18T13:33:44;8.27;;;5.10;;
4290;SDS011;2159;50.906;7.152;2023-11-18T13:36:14;9.03;;;5.30;;
4290;SDS011;2159;50.906;7.152;2023-11-18T13:38:42;8.40;;;4.60;;
4290;SDS011;2159;50.906;7.152;2023-11-18T13:41:11;7.97;;;5.30;;
4290;SDS011;2159;50.906;7.152;2023-11-18T13:43:42;8.57;;;5.13;;
4290;SDS011;2159;50.906;7.152;2023-11-18T13:46:11;8.30;;;4.80;;
4290;SDS011;2159;50.906;7.152;2023-11-18T13:48:39;7.57;;;4.50;;
4290;SDS011;2159;50.906;7.152;2023-11-18T13:51:08;6.20;;;4.03;;
4290;SDS011;2159;50.906;7.152;2023-11-18T13:53:39;4.73;;;3.87;;
4290;SDS011;2159;50.906;7.152;2023-11-18T13:56:07;5.77;;;3.93;;
4290;SDS011;2159;50.906;7.152;2023-11-18T13:58:37;7.30;;;3.93;;
4290;SDS011;2159;50.906;7.152;2023-11-18T14:01:05;7.93;;;3.93;;
4290;SDS011;2159;50.906;7.152;2023-11-18T14:03:34;8.70;;;4.20;;
4290;SDS011;2159;50.906;7.152;2023-11-18T14:06:05;6.13;;;4.40;;
4290;SDS011;2159;50.906;7.152;2023-11-18T14:08:33;7.53;;;4.87;;
4290;SDS011;2159;50.906;7.152;2023-11-18T14:11:01;9.93;;;4.87;;
4290;SDS011;2159;50.906;7.152;2023-11-18T14:13:40;8.00;;;5.17;;
4290;SDS011;2159;50.906;7.152;2023-11-18T14:16:07;6.60;;;4.77;;
4290;SDS011;2159;50.906;7.152;2023-11-18T14:18:36;10.53;;;6.13;;
4290;SDS011;2159;50.906;7.152;2023-11-18T14:21:07;7.70;;;4.70;;
4290;SDS011;2159;50.906;7.152;2023-11-18T14:23:35;6.73;;;4.40;;
4290;SDS011;2159;50.906;7.152;2023-11-18T14:26:04;6.23;;;4.70;;
4290;SDS011;2159;50.906;7.152;2023-11-18T14:28:32;8.23;;;5.10;;
4290;SDS011;2159;50.906;7.152;2023-11-18T14:31:02;11.50;;;4.80;;
4290;SDS011;2159;50.906;7.152;2023-11-18T14:33:30;8.27;;;5.10;;
4290;SDS011;2159;50.906;7.152;2023-11-18T14:35:59;7.90;;;5.07;;
4290;SDS011;2159;50.906;7.152;2023-11-18T14:38:27;7.70;;;4.97;;
4290;SDS011;2159;50.906;7.152;2023-11-18T14:40:54;6.93;;;4.80;;
4290;SDS011;2159;50.906;7.152;2023-11-18T14:43:22;6.97;;;4.67;;
4290;SDS011;2159;50.906;7.152;2023-11-18T14:45:50;6.50;;;4.57;;
4290;SDS011;2159;50.906;7.152;2023-11-18T14:48:19;8.00;;;4.60;;
4290;SDS011;2159;50.906;7.152;2023-11-18T14:50:46;5.73;;;4.20;;
4290;SDS011;2159;50.906;7.152;2023-11-18T14:53:14;8.80;;;5.60;;
4290;SDS011;2159;50.906;7.152;2023-11-18T14:55:40;6.67;;;4.30;;
4290;SDS011;2159;50.906;7.152;2023-11-18T14:58:08;7.57;;;5.43;;
4290;SDS011;2159;50.906;7.152;2023-11-18T15:00:38;5.80;;;4.20;;
4290;SDS011;2159;50.906;7.152;2023-11-18T15:03:06;4.87;;;3.83;;
4290;SDS011;2159;50.906;7.152;2023-11-18T15:05:35;9.93;;;5.80;;
4290;SDS011;2159;50.906;7.152;2023-11-18T15:08:04;5.77;;;3.87;;
4290;SDS011;2159;50.906;7.152;2023-11-18T15:10:35;6.93;;;4.07;;
4290;SDS011;2159;50.906;7.152;2023-11-18T15:13:05;6.87;;;4.40;;
4290;SDS011;2159;50.906;7.152;2023-11-18T15:15:33;8.10;;;5.40;;
4290;SDS011;2159;50.906;7.152;2023-11-18T15:18:02;8.53;;;4.60;;
4290;SDS011;2159;50.906;7.152;2023-11-18T15:20:31;12.57;;;7.50;;
4290;SDS011;2159;50.906;7.152;2023-11-18T15:23:00;9.33;;;5.07;;
4290;SDS011;2159;50.906;7.152;2023-11-18T15:25:27;8.33;;;4.47;;